Time;durP1;ratioP1;P1;durP2;ratioP2;P2;SDS_P1;SDS_P2;PMS_P1;PMS_P2;Temp;Humidity;BMP_temperature;BMP_pressure;BME280_temperature;BME280_humidity;BME280_pressure;Samples;Min_cycle;Max_cycle;Signal;HPM_P1;HPM_P2
2021/04/30 00:00:11;;;;;;;76.70;39.90;;;13.00;62.60;;;;;;5072266;28;20036;-64
2021/04/30 00:02:41;;;;;;;82.10;40.38;;;12.90;62.40;;;;;;5069824;28;20042;-64
2021/04/30 00:05:10;;;;;;;84.03;40.17;;;13.00;62.50;;;;;;5069626;28;20366;-64
2021/04/30 00:07:37;;;;;;;80.03;39.30;;;13.00;62.60;;;;;;5074304;28;20143;-64
2021/04/30 00:10:07;;;;;;;77.10;40.08;;;13.00;63.30;;;;;;5075796;28;20039;-64
2021/04/30 00:12:33;;;;;;;83.47;41.97;;;13.00;62.50;;;;;;5070491;28;20043;-64
2021/04/30 00:15:01;;;;;;;78.60;40.38;;;13.00;62.50;;;;;;5073874;28;20028;-64
2021/04/30 00:17:27;;;;;;;83.47;42.13;;;12.90;62.30;;;;;;5065074;28;20084;-64
2021/04/30 00:19:54;;;;;;;82.72;41.42;;;12.90;62.30;;;;;;5071398;28;20444;-64
2021/04/30 00:22:20;;;;;;;85.75;42.05;;;12.90;62.40;;;;;;5061138;28;20032;-64
2021/04/30 00:24:46;;;;;;;91.28;41.45;;;12.90;62.40;;;;;;5070646;28;20040;-64
2021/04/30 00:27:16;;;;;;;88.88;42.20;;;12.90;62.40;;;;;;5071916;28;20060;-63
2021/04/30 00:29:42;;;;;;;85.30;41.92;;;12.90;62.40;;;;;;5071320;28;20118;-64
2021/04/30 00:32:13;;;;;;;83.40;40.97;;;12.90;62.30;;;;;;5070164;28;20021;-64
2021/04/30 00:34:44;;;;;;;90.43;42.55;;;12.80;62.10;;;;;;5072070;28;20043;-64
2021/04/30 00:37:09;;;;;;;97.68;41.55;;;12.80;62.00;;;;;;5072981;28;20039;-64
2021/04/30 00:39:38;;;;;;;96.95;43.80;;;12.70;61.90;;;;;;5071913;28;20405;-64
2021/04/30 00:42:07;;;;;;;100.80;43.75;;;12.70;61.90;;;;;;5077535;28;20032;-64
2021/04/30 00:44:35;;;;;;;98.30;44.40;;;12.70;62.10;;;;;;5072363;28;20447;-64
2021/04/30 00:47:00;;;;;;;98.45;43.63;;;12.60;62.30;;;;;;5076548;28;21027;-64
2021/04/30 00:49:28;;;;;;;104.18;44.92;;;12.60;62.30;;;;;;5068393;28;20047;-64
2021/04/30 00:51:54;;;;;;;98.25;42.50;;;12.50;62.30;;;;;;5072589;28;20478;-64
2021/04/30 00:54:19;;;;;;;104.05;43.85;;;12.50;62.20;;;;;;5042993;28;20028;-64
2021/04/30 00:56:45;;;;;;;107.53;43.50;;;12.50;62.10;;;;;;5075970;28;20036;-64
2021/04/30 00:59:12;;;;;;;100.78;43.85;;;12.40;61.80;;;;;;5063718;28;20874;-63
2021/04/30 01:01:40;;;;;;;107.47;44.13;;;12.40;61.80;;;;;;5076627;28;20536;-64
2021/04/30 01:04:07;;;;;;;113.38;44.45;;;12.30;61.70;;;;;;5073613;28;20060;-64
2021/04/30 01:06:35;;;;;;;97.75;43.85;;;12.20;61.70;;;;;;5070580;28;20024;-64
2021/04/30 01:09:05;;;;;;;101.90;43.35;;;12.10;61.70;;;;;;5072009;28;20040;-64
2021/04/30 01:11:34;;;;;;;106.40;43.97;;;12.10;61.70;;;;;;5059119;28;20512;-64
2021/04/30 01:14:00;;;;;;;111.00;44.92;;;12.00;61.80;;;;;;5068751;28;20082;-64
2021/04/30 01:16:25;;;;;;;112.35;43.25;;;11.90;61.80;;;;;;5073416;28;20044;-64
2021/04/30 01:18:55;;;;;;;113.55;42.70;;;11.80;61.80;;;;;;5074443;28;20389;-64
2021/04/30 01:21:26;;;;;;;110.35;41.97;;;11.80;61.80;;;;;;5077287;28;20565;-64
2021/04/30 01:23:56;;;;;;;108.50;43.70;;;11.70;62.00;;;;;;5045458;28;20036;-64
2021/04/30 01:26:24;;;;;;;133.68;46.75;;;11.70;62.00;;;;;;5051370;28;20047;-64
2021/04/30 01:28:50;;;;;;;124.22;44.88;;;11.70;62.20;;;;;;5073685;28;20458;-64
2021/04/30 01:31:17;;;;;;;126.30;46.40;;;11.70;62.40;;;;;;5055202;28;20375;-64
2021/04/30 01:33:42;;;;;;;138.20;50.10;;;11.70;62.50;;;;;;5066868;28;20406;-64
2021/04/30 01:36:15;;;;;;;136.93;48.47;;;11.70;62.70;;;;;;5075737;28;20044;-64
2021/04/30 01:38:41;;;;;;;141.35;48.70;;;11.70;62.90;;;;;;5068679;28;20040;-64
2021/04/30 01:41:09;;;;;;;128.05;47.03;;;11.70;62.80;;;;;;5076764;28;20036;-64
2021/04/30 01:43:34;;;;;;;131.45;46.72;;;11.70;62.80;;;;;;5059369;28;20495;-64
2021/04/30 01:46:07;;;;;;;133.43;47.53;;;11.70;63.60;;;;;;5072350;28;20123;-64
2021/04/30 01:48:35;;;;;;;131.30;46.55;;;11.70;62.90;;;;;;5046227;28;20047;-63
2021/04/30 01:51:02;;;;;;;115.28;43.55;;;11.70;62.90;;;;;;5068475;28;20425;-64
2021/04/30 01:53:31;;;;;;;131.27;44.75;;;11.80;62.90;;;;;;5074076;28;20401;-64
2021/04/30 01:56:00;;;;;;;141.05;46.53;;;11.70;62.80;;;;;;5076216;28;20028;-64
2021/04/30 01:58:26;;;;;;;141.98;45.72;;;11.80;62.80;;;;;;5045238;28;20093;-64
2021/04/30 02:00:57;;;;;;;132.02;46.90;;;11.70;62.60;;;;;;5070962;28;20045;-64
2021/04/30 02:03:23;;;;;;;135.27;46.47;;;11.70;62.60;;;;;;5073069;28;20090;-64
2021/04/30 02:05:51;;;;;;;129.18;45.33;;;11.70;62.50;;;;;;5072284;28;20561;-64
2021/04/30 02:08:17;;;;;;;137.43;45.63;;;11.60;62.30;;;;;;5067647;28;20036;-64
2021/04/30 02:10:44;;;;;;;125.43;43.65;;;11.60;62.20;;;;;;5066313;28;20303;-64
2021/04/30 02:13:12;;;;;;;127.18;43.58;;;11.50;62.10;;;;;;5075150;28;20032;-65
2021/04/30 02:15:43;;;;;;;146.52;44.05;;;11.50;62.10;;;;;;5073096;28;20443;-64
2021/04/30 02:18:11;;;;;;;133.93;44.85;;;11.40;62.00;;;;;;5073408;28;20286;-64
2021/04/30 02:20:43;;;;;;;147.73;45.22;;;11.40;62.00;;;;;;5072950;28;20062;-64
2021/04/30 02:23:11;;;;;;;148.82;46.28;;;11.40;62.10;;;;;;5075367;28;20123;-64
2021/04/30 02:25:37;;;;;;;155.50;47.15;;;11.30;62.20;;;;;;5071652;28;20070;-64
2021/04/30 02:28:04;;;;;;;135.00;43.92;;;11.30;62.30;;;;;;5075441;28;20445;-64
2021/04/30 02:30:34;;;;;;;142.27;44.58;;;11.20;62.20;;;;;;5069857;28;20494;-64
2021/04/30 02:33:01;;;;;;;126.82;44.33;;;11.20;62.40;;;;;;5058567;28;20097;-64
2021/04/30 02:35:46;;;;;;;135.55;47.20;;;11.10;62.20;;;;;;5070750;28;20058;-64
2021/04/30 02:38:14;;;;;;;135.40;43.85;;;11.10;62.20;;;;;;5068923;28;20058;-64
2021/04/30 02:40:41;;;;;;;209.70;40.90;;;11.10;62.20;;;;;;5068082;28;20032;-64
2021/04/30 02:43:12;;;;;;;144.93;38.92;;;11.00;62.00;;;;;;5054148;28;20040;-64
2021/04/30 02:45:41;;;;;;;151.65;39.15;;;11.00;62.00;;;;;;5071818;28;20040;-64
2021/04/30 02:48:14;;;;;;;145.15;40.15;;;10.90;61.90;;;;;;5069766;28;20109;-64
2021/04/30 02:50:45;;;;;;;115.95;38.90;;;10.90;61.90;;;;;;5055651;28;20047;-64
2021/04/30 02:53:10;;;;;;;109.00;38.05;;;10.80;61.90;;;;;;5073936;28;20040;-64
2021/04/30 02:55:36;;;;;;;267.55;38.63;;;10.80;62.00;;;;;;5074654;28;20502;-63
2021/04/30 02:58:06;;;;;;;157.77;35.40;;;10.70;61.90;;;;;;5070875;28;20048;-64
2021/04/30 03:00:32;;;;;;;239.07;36.75;;;10.70;62.10;;;;;;5067988;28;20040;-63
2021/04/30 03:03:00;;;;;;;105.95;36.83;;;10.60;62.00;;;;;;5073636;28;20393;-64
2021/04/30 03:05:26;;;;;;;115.60;37.95;;;10.60;62.10;;;;;;5064013;28;20067;-64
2021/04/30 03:07:53;;;;;;;187.70;38.75;;;10.60;62.10;;;;;;5046775;28;20462;-64
2021/04/30 03:10:18;;;;;;;122.82;37.35;;;10.60;62.10;;;;;;5070406;28;20040;-64
2021/04/30 03:12:46;;;;;;;108.10;37.85;;;10.50;62.00;;;;;;5054246;28;20481;-64
2021/04/30 03:15:14;;;;;;;108.63;36.20;;;10.50;62.00;;;;;;5071640;28;20037;-64
2021/04/30 03:17:40;;;;;;;221.75;38.33;;;10.40;62.00;;;;;;5071907;28;20658;-64
2021/04/30 03:20:09;;;;;;;102.20;36.20;;;10.40;62.10;;;;;;5073532;28;20036;-64
2021/04/30 03:22:45;;;;;;;120.38;38.42;;;10.40;62.10;;;;;;5071858;28;20040;-64
2021/04/30 03:25:12;;;;;;;102.07;37.42;;;10.40;62.20;;;;;;5065784;28;20043;-64
2021/04/30 03:27:40;;;;;;;130.23;40.15;;;10.40;62.40;;;;;;5067687;28;20036;-64
2021/04/30 03:30:10;;;;;;;103.65;34.67;;;10.40;62.50;;;;;;5063835;28;21454;-64
2021/04/30 03:32:36;;;;;;;251.18;39.22;;;10.40;62.40;;;;;;5068659;28;20150;-64
2021/04/30 03:35:07;;;;;;;207.68;36.22;;;10.40;62.20;;;;;;5064378;28;20040;-65
2021/04/30 03:37:33;;;;;;;143.80;32.10;;;10.30;62.20;;;;;;5066892;28;20036;-63
2021/04/30 03:39:59;;;;;;;129.30;33.65;;;10.30;62.20;;;;;;5069085;28;20032;-64
2021/04/30 03:42:26;;;;;;;96.03;36.20;;;10.30;62.20;;;;;;5069759;28;20120;-64
2021/04/30 03:44:52;;;;;;;100.57;32.92;;;10.30;62.30;;;;;;5071519;28;20066;-64
2021/04/30 03:47:20;;;;;;;112.50;31.10;;;10.30;62.40;;;;;;5061904;28;20657;-64
2021/04/30 03:49:50;;;;;;;95.32;30.20;;;10.30;62.40;;;;;;5062161;28;20032;-64
2021/04/30 03:52:18;;;;;;;103.57;28.80;;;10.30;62.50;;;;;;5070541;28;20634;-64
2021/04/30 03:54:44;;;;;;;94.63;31.08;;;10.30;62.50;;;;;;5067560;28;20091;-64
2021/04/30 03:57:14;;;;;;;99.20;31.50;;;10.30;62.50;;;;;;5062647;28;20044;-64
2021/04/30 03:59:42;;;;;;;90.80;32.55;;;10.30;62.50;;;;;;5048912;28;20055;-64
2021/04/30 04:02:10;;;;;;;145.95;42.83;;;10.40;62.50;;;;;;5047039;28;20152;-64
2021/04/30 04:04:38;;;;;;;116.85;37.47;;;10.40;62.50;;;;;;5069421;28;20071;-64
2021/04/30 04:07:03;;;;;;;125.13;38.55;;;10.40;62.50;;;;;;5070195;28;20051;-64
2021/04/30 04:09:31;;;;;;;112.60;37.78;;;10.40;62.50;;;;;;5064643;28;21752;-64
2021/04/30 04:11:59;;;;;;;138.80;38.42;;;10.40;62.50;;;;;;5064394;28;20039;-64
2021/04/30 04:14:27;;;;;;;117.47;38.22;;;10.40;62.50;;;;;;5069206;28;20043;-64
2021/04/30 04:16:52;;;;;;;142.73;42.05;;;10.40;62.50;;;;;;5074311;28;20029;-63
2021/04/30 04:19:20;;;;;;;131.27;42.63;;;10.50;62.60;;;;;;5070574;28;20067;-64
2021/04/30 04:21:46;;;;;;;143.00;39.90;;;10.50;62.70;;;;;;5064008;28;20555;-64
2021/04/30 04:24:12;;;;;;;124.88;38.40;;;10.50;62.70;;;;;;5068571;28;20032;-64
2021/04/30 04:26:40;;;;;;;107.22;35.65;;;10.60;62.80;;;;;;5062754;28;20042;-64
2021/04/30 04:29:06;;;;;;;105.18;33.25;;;10.60;62.70;;;;;;5058858;28;20858;-64
2021/04/30 04:31:36;;;;;;;116.72;37.40;;;10.60;62.80;;;;;;5075146;28;20166;-64
2021/04/30 04:34:06;;;;;;;95.47;34.70;;;10.60;62.80;;;;;;5065076;28;20504;-64
2021/04/30 04:36:33;;;;;;;114.65;38.58;;;10.60;62.80;;;;;;5045783;28;20065;-64
2021/04/30 04:38:59;;;;;;;85.38;34.20;;;10.70;62.90;;;;;;5043197;28;20056;-65
2021/04/30 04:41:24;;;;;;;104.10;34.63;;;10.70;62.90;;;;;;5063728;28;21652;-64
2021/04/30 04:43:50;;;;;;;100.00;35.58;;;10.70;62.90;;;;;;5071428;28;20386;-64
2021/04/30 04:46:18;;;;;;;130.00;40.40;;;10.80;63.00;;;;;;5072788;28;20044;-64
2021/04/30 04:48:43;;;;;;;116.68;39.72;;;10.80;63.00;;;;;;5049563;28;20135;-64
2021/04/30 04:51:11;;;;;;;117.07;39.20;;;10.80;63.00;;;;;;5069115;28;20036;-64
2021/04/30 04:53:40;;;;;;;112.95;39.53;;;10.90;63.10;;;;;;5073042;28;20340;-64
2021/04/30 04:56:07;;;;;;;137.68;41.58;;;10.90;63.10;;;;;;5066653;28;20071;-64
2021/04/30 04:58:35;;;;;;;122.32;40.88;;;10.90;63.10;;;;;;5065992;28;20043;-64
2021/04/30 05:01:00;;;;;;;124.15;41.67;;;11.00;63.10;;;;;;5071346;28;20060;-63
2021/04/30 05:03:31;;;;;;;133.45;42.38;;;11.10;63.10;;;;;;5067891;28;20902;-64
2021/04/30 05:05:56;;;;;;;120.78;42.08;;;11.10;63.20;;;;;;5073078;28;20981;-64
2021/04/30 05:08:24;;;;;;;156.35;43.40;;;11.20;63.20;;;;;;5045221;28;20052;-64
2021/04/30 05:10:52;;;;;;;140.15;43.85;;;11.20;63.20;;;;;;5053691;28;20044;-64
2021/04/30 05:13:20;;;;;;;151.80;43.10;;;11.30;63.10;;;;;;5074803;28;20053;-64
2021/04/30 05:15:48;;;;;;;138.10;44.15;;;11.30;63.00;;;;;;5070164;28;20036;-64
2021/04/30 05:18:15;;;;;;;148.90;43.53;;;11.40;63.10;;;;;;5071182;28;20569;-64
2021/04/30 05:20:43;;;;;;;144.88;42.38;;;11.50;63.10;;;;;;5065468;28;20797;-64
2021/04/30 05:23:09;;;;;;;136.57;42.00;;;11.50;63.00;;;;;;5068425;28;20036;-64
2021/04/30 05:25:37;;;;;;;132.48;42.20;;;11.60;63.10;;;;;;5070348;28;20426;-64
2021/04/30 05:28:04;;;;;;;115.78;39.60;;;11.70;63.30;;;;;;5059162;28;20040;-64
2021/04/30 05:30:30;;;;;;;130.13;39.95;;;11.70;63.30;;;;;;5069082;28;20032;-64
2021/04/30 05:32:55;;;;;;;126.97;43.55;;;11.90;63.60;;;;;;5054532;28;20074;-64
2021/04/30 05:35:23;;;;;;;141.70;43.75;;;12.00;63.80;;;;;;5070474;28;20403;-64
2021/04/30 05:37:51;;;;;;;151.43;49.92;;;12.20;64.00;;;;;;5060169;28;20040;-64
2021/04/30 05:40:18;;;;;;;135.07;47.13;;;12.40;64.00;;;;;;5055101;28;20044;-65
2021/04/30 05:42:46;;;;;;;149.00;50.05;;;12.60;63.90;;;;;;5070415;28;20127;-65
2021/04/30 05:45:17;;;;;;;139.25;49.25;;;12.80;63.80;;;;;;5052023;28;20067;-65
2021/04/30 05:47:45;;;;;;;134.32;47.95;;;12.90;63.50;;;;;;5047473;28;20521;-64
2021/04/30 05:50:11;;;;;;;133.70;47.08;;;13.00;63.30;;;;;;5072150;28;20530;-64
2021/04/30 05:52:37;;;;;;;122.07;47.53;;;13.00;63.10;;;;;;5052715;28;20411;-64
2021/04/30 05:55:04;;;;;;;122.68;45.55;;;13.10;63.10;;;;;;5063589;28;20100;-64
2021/04/30 05:57:30;;;;;;;111.40;45.83;;;13.20;63.10;;;;;;5062476;28;20562;-64
2021/04/30 05:59:55;;;;;;;116.50;44.90;;;13.20;63.00;;;;;;5070068;28;20044;-64
2021/04/30 06:02:23;;;;;;;125.18;47.13;;;13.20;62.90;;;;;;5067045;28;20044;-64
2021/04/30 06:04:49;;;;;;;112.88;45.03;;;13.20;62.90;;;;;;5067789;28;20550;-64
2021/04/30 06:07:14;;;;;;;122.75;45.97;;;13.30;63.00;;;;;;5071071;28;20040;-64
2021/04/30 06:09:41;;;;;;;120.13;46.38;;;13.30;63.00;;;;;;5066568;28;20090;-64
2021/04/30 06:12:07;;;;;;;129.50;47.30;;;13.40;63.10;;;;;;5070411;28;20036;-65
2021/04/30 06:14:33;;;;;;;110.78;46.10;;;13.50;63.10;;;;;;5055844;28;20060;-64
2021/04/30 06:16:59;;;;;;;110.35;46.70;;;13.60;63.20;;;;;;5069020;28;20040;-64
2021/04/30 06:19:25;;;;;;;105.03;46.45;;;13.70;63.20;;;;;;5069730;28;20119;-64
2021/04/30 06:21:56;;;;;;;99.15;45.75;;;13.80;63.30;;;;;;5067970;28;20570;-64
2021/04/30 06:24:23;;;;;;;88.15;43.17;;;14.00;63.30;;;;;;5071875;28;20601;-64
2021/04/30 06:26:51;;;;;;;87.28;42.13;;;14.10;63.20;;;;;;5070642;28;20028;-64
2021/04/30 06:29:17;;;;;;;81.60;41.67;;;14.20;62.90;;;;;;5067858;28;20057;-64
2021/04/30 06:31:42;;;;;;;86.60;42.58;;;14.20;62.60;;;;;;5048392;28;20036;-64
2021/04/30 06:34:08;;;;;;;78.35;41.20;;;14.30;62.60;;;;;;5074301;28;20036;-64
2021/04/30 06:36:39;;;;;;;83.10;39.78;;;14.40;62.50;;;;;;5066493;28;20094;-64
2021/04/30 06:39:05;;;;;;;73.32;38.95;;;14.40;62.30;;;;;;5048132;28;20098;-64
2021/04/30 06:41:31;;;;;;;69.70;39.38;;;14.40;62.20;;;;;;5069911;28;20031;-64
2021/04/30 06:43:59;;;;;;;71.45;39.22;;;14.30;62.10;;;;;;5066180;28;20082;-64
2021/04/30 06:46:26;;;;;;;72.22;40.10;;;14.30;62.00;;;;;;5061166;28;20138;-64
2021/04/30 06:48:52;;;;;;;70.55;38.58;;;14.40;62.10;;;;;;5061139;28;20086;-64
2021/04/30 06:51:20;;;;;;;72.75;38.92;;;14.40;62.00;;;;;;5058538;28;20090;-64
2021/04/30 06:53:48;;;;;;;65.93;37.53;;;14.40;62.10;;;;;;5045320;28;20058;-64
2021/04/30 06:56:25;;;;;;;71.72;39.30;;;14.40;62.00;;;;;;5066632;28;20053;-64
2021/04/30 06:58:51;;;;;;;63.45;38.30;;;14.50;62.10;;;;;;5057859;28;20127;-64
2021/04/30 07:01:19;;;;;;;70.68;39.40;;;14.60;62.30;;;;;;5052438;28;20353;-65
2021/04/30 07:03:48;;;;;;;64.07;37.92;;;14.80;62.50;;;;;;5056491;28;20369;-64
2021/04/30 07:06:15;;;;;;;63.83;36.45;;;15.10;62.60;;;;;;5059480;28;20122;-65
2021/04/30 07:08:43;;;;;;;59.15;36.38;;;15.30;62.40;;;;;;5056747;28;20559;-65
2021/04/30 07:11:13;;;;;;;54.03;31.42;;;15.70;62.20;;;;;;5027999;28;21297;-65
2021/04/30 07:13:43;;;;;;;47.33;30.80;;;16.00;61.20;;;;;;5063729;28;20055;-65
2021/04/30 07:16:09;;;;;;;48.95;29.40;;;16.40;60.70;;;;;;5067934;28;20089;-64
2021/04/30 07:18:37;;;;;;;31.92;24.38;;;17.10;60.40;;;;;;5043474;28;20035;-64
2021/04/30 07:21:04;;;;;;;32.47;22.25;;;;;;;;;;5064122;28;20059;-65
2021/04/30 07:23:33;;;;;;;29.30;20.42;;;;;;;;;;5064547;28;20043;-65
2021/04/30 07:25:59;;;;;;;31.08;21.05;;;;;;;;;;5052898;28;20135;-65
2021/04/30 07:28:25;;;;;;;26.88;20.35;;;;;;;;;;5052467;28;20055;-64
2021/04/30 07:30:51;;;;;;;27.15;18.60;;;18.10;59.40;;;;;;5046893;28;20036;-65
2021/04/30 07:33:16;;;;;;;23.20;18.02;;;21.70;48.30;;;;;;5049759;28;20048;-65
2021/04/30 07:35:42;;;;;;;26.70;17.65;;;22.20;46.40;;;;;;5054008;28;20165;-65
2021/04/30 07:38:14;;;;;;;21.33;17.15;;;22.80;45.20;;;;;;5013644;28;20152;-65
2021/04/30 07:40:43;;;;;;;21.33;14.30;;;23.40;43.60;;;;;;5060481;28;20094;-66
2021/04/30 07:43:13;;;;;;;19.50;14.85;;;24.10;41.60;;;;;;5056142;28;20173;-65
2021/04/30 07:45:39;;;;;;;18.17;14.70;;;;;;;;;;5050636;28;20472;-65
2021/04/30 07:48:08;;;;;;;18.13;13.95;;;;;;;;;;5050977;28;20040;-65
2021/04/30 07:50:36;;;;;;;18.70;14.35;;;;;;;;;;5043927;28;20079;-65
2021/04/30 07:53:05;;;;;;;21.67;15.05;;;;;;;;;;5067015;28;20520;-65
2021/04/30 07:55:32;;;;;;;19.73;15.35;;;;;;;;;;5062093;28;20051;-65
2021/04/30 07:57:58;;;;;;;19.38;14.75;;;;;;;;;;5057188;28;20032;-65
2021/04/30 08:00:25;;;;;;;18.02;14.75;;;;;;;;;;5064977;28;20819;-66
2021/04/30 08:02:51;;;;;;;18.52;15.20;;;;;;;;;;5033226;28;20048;-65
2021/04/30 08:05:17;;;;;;;17.02;13.85;;;;;;;;;;5039056;28;20530;-65
2021/04/30 08:07:43;;;;;;;16.50;13.68;;;;;;;;;;5016289;28;20052;-65
2021/04/30 08:10:09;;;;;;;16.23;13.73;;;;;;;;;;5061976;28;20032;-65
2021/04/30 08:12:38;;;;;;;17.60;14.55;;;;;;;;;;5066961;28;20127;-65
2021/04/30 08:15:04;;;;;;;18.50;14.65;;;;;;;;;;5052563;28;20074;-65
2021/04/30 08:17:30;;;;;;;18.02;14.13;;;;;;;;;;5058091;28;20067;-65
2021/04/30 08:19:58;;;;;;;16.33;13.07;;;;;;;;;;5062353;28;20717;-65
2021/04/30 08:22:27;;;;;;;16.80;14.07;;;;;;;;;;5059523;28;20573;-64
2021/04/30 08:24:53;;;;;;;15.98;13.73;;;;;;;;;;5066015;28;20456;-65
2021/04/30 08:27:22;;;;;;;16.98;13.93;;;;;;;;;;5051663;28;20875;-65
2021/04/30 08:29:50;;;;;;;19.50;13.90;;;;;;;;;;5053106;28;20071;-65
2021/04/30 08:32:17;;;;;;;18.35;14.25;;;;;;;;;;5064562;28;20486;-65
2021/04/30 08:34:43;;;;;;;20.02;14.60;;;;;;;;;;5062984;28;20056;-65
2021/04/30 08:37:09;;;;;;;16.98;14.10;;;;;;;;;;5060249;28;20147;-64
2021/04/30 08:39:37;;;;;;;17.02;14.50;;;24.80;39.50;;;;;;5057134;28;20628;-65
2021/04/30 08:42:03;;;;;;;17.60;14.10;;;22.00;38.20;;;;;;5047822;28;20043;-65
2021/04/30 08:44:29;;;;;;;20.85;14.55;;;21.40;38.40;;;;;;5066192;28;20154;-65
2021/04/30 08:46:56;;;;;;;20.55;15.63;;;21.00;39.10;;;;;;5044050;28;20040;-65
2021/04/30 08:49:22;;;;;;;18.35;14.70;;;20.70;40.00;;;;;;5058847;28;20068;-65
2021/04/30 08:51:48;;;;;;;18.85;14.95;;;20.40;40.50;;;;;;5044514;28;20154;-65
2021/04/30 08:54:16;;;;;;;19.65;14.07;;;20.20;41.70;;;;;;5064077;28;20036;-65
2021/04/30 08:56:46;;;;;;;19.48;14.75;;;20.00;41.30;;;;;;5060329;28;20138;-64
2021/04/30 08:59:15;;;;;;;17.60;13.50;;;19.90;42.40;;;;;;5060079;28;20036;-65
2021/04/30 09:01:43;;;;;;;18.52;14.25;;;20.00;42.20;;;;;;5061132;28;20555;-65
2021/04/30 09:04:11;;;;;;;17.95;14.32;;;20.10;42.50;;;;;;5065173;28;20035;-65
2021/04/30 09:06:39;;;;;;;18.15;13.88;;;20.40;42.00;;;;;;5057275;28;20158;-65
2021/04/30 09:09:10;;;;;;;15.65;13.50;;;20.90;41.20;;;;;;5062832;28;20509;-65
2021/04/30 09:11:40;;;;;;;16.13;12.48;;;21.40;41.10;;;;;;5066999;28;20690;-65
2021/04/30 09:14:32;;;;;;;16.25;13.68;;;21.90;39.30;;;;;;5071338;28;20600;-65
2021/04/30 09:17:20;;;;;;;16.85;12.52;;;22.20;38.70;;;;;;5051085;28;20047;-65
2021/04/30 09:20:00;;;;;;;13.43;11.73;;;22.80;38.60;;;;;;5054476;28;20047;-65
2021/04/30 09:22:31;;;;;;;14.02;11.43;;;24.00;37.50;;;;;;5048531;28;20123;-65
2021/04/30 09:25:01;;;;;;;13.75;11.38;;;;;;;;;;5050608;28;20515;-66
2021/04/30 09:27:33;;;;;;;12.43;11.13;;;;;;;;;;5062970;28;20226;-66
2021/04/30 09:30:17;;;;;;;11.95;10.75;;;;;;;;;;5059001;28;20036;-65
2021/04/30 09:33:06;;;;;;;11.95;10.75;;;25.30;35.70;;;;;;5056386;28;20028;-65
2021/04/30 09:35:37;;;;;;;11.48;10.38;;;29.70;29.30;;;;;;5059586;28;20116;-65
2021/04/30 09:38:33;;;;;;;11.27;9.48;;;30.10;28.10;;;;;;5066912;28;20044;-66
2021/04/30 09:41:02;;;;;;;11.45;10.20;;;;;;;;;;5071955;28;20043;-66
2021/04/30 09:43:40;;;;;;;11.18;9.93;;;;;;;;;;5065870;28;20111;-66
2021/04/30 09:46:24;;;;;;;10.85;9.75;;;;;;;;;;5068928;28;20035;-65
2021/04/30 09:48:57;;;;;;;10.63;9.18;;;;;;;;;;5061321;28;20051;-65
2021/04/30 09:51:41;;;;;;;10.30;8.50;;;30.60;26.40;;;;;;5060714;28;20048;-65
2021/04/30 09:54:23;;;;;;;11.15;9.60;;;31.70;25.10;;;;;;5068013;28;20062;-66
2021/04/30 09:57:04;;;;;;;10.07;8.93;;;31.80;24.80;;;;;;5047023;28;20043;-66
2021/04/30 09:59:30;;;;;;;10.90;9.80;;;31.90;25.00;;;;;;5067126;28;20028;-66
2021/04/30 10:02:06;;;;;;;9.43;8.50;;;31.90;24.40;;;;;;5068675;28;20036;-66
2021/04/30 10:04:34;;;;;;;11.05;8.77;;;32.00;24.20;;;;;;5051591;28;20363;-66
2021/04/30 10:07:01;;;;;;;9.18;8.27;;;32.20;24.50;;;;;;5053369;28;20047;-66
2021/04/30 10:09:30;;;;;;;12.55;9.73;;;;;;;;;;5064773;28;20038;-65
2021/04/30 10:11:56;;;;;;;10.50;8.50;;;32.40;24.50;;;;;;5064814;28;20472;-66
2021/04/30 10:14:24;;;;;;;10.10;9.10;;;;;;;;;;5064331;28;20044;-66
2021/04/30 10:16:55;;;;;;;12.35;8.60;;;;;;;;;;5058122;28;20040;-66
2021/04/30 10:19:22;;;;;;;10.00;8.10;;;;;;;;;;5052253;28;20035;-66
2021/04/30 10:21:50;;;;;;;11.77;8.52;;;;;;;;;;5067568;28;20028;-66
2021/04/30 10:24:21;;;;;;;9.18;8.13;;;32.10;23.30;;;;;;5069988;28;20028;-65
2021/04/30 10:26:49;;;;;;;8.88;7.97;;;;;;;;;;5068541;28;20051;-66
2021/04/30 10:29:21;;;;;;;13.68;9.80;;;;;;;;;;5063346;28;20712;-66
2021/04/30 10:31:50;;;;;;;11.27;9.48;;;;;;;;;;5061373;28;20063;-66
2021/04/30 10:34:31;;;;;;;11.43;9.60;;;;;;;;;;5060553;28;20137;-66
2021/04/30 10:37:03;;;;;;;10.30;8.93;;;32.70;22.30;;;;;;5063891;28;20048;-66
2021/04/30 10:39:36;;;;;;;11.40;8.75;;;28.70;25.50;;;;;;5055438;28;20063;-65
2021/04/30 10:42:13;;;;;;;9.25;7.95;;;29.20;25.50;;;;;;5046142;28;20043;-65
2021/04/30 10:44:44;;;;;;;10.68;9.00;;;29.90;24.00;;;;;;5050306;28;20032;-66
2021/04/30 10:47:10;;;;;;;9.82;8.73;;;;;;;;;;5063519;28;20127;-65
2021/04/30 10:49:36;;;;;;;9.55;8.52;;;30.40;23.60;;;;;;5057514;28;20040;-66
2021/04/30 10:52:21;;;;;;;10.50;8.30;;;29.90;23.00;;;;;;5069799;28;20642;-65
2021/04/30 10:55:16;;;;;;;13.10;9.80;;;28.60;23.60;;;;;;5070974;28;20452;-65
2021/04/30 10:57:57;;;;;;;11.75;8.98;;;27.40;25.60;;;;;;5061016;28;20079;-65
2021/04/30 11:00:38;;;;;;;11.95;9.15;;;26.40;27.40;;;;;;5056204;28;20032;-65
2021/04/30 11:03:23;;;;;;;10.73;9.43;;;26.10;28.70;;;;;;5058893;28;20446;-65
2021/04/30 11:05:54;;;;;;;13.27;9.65;;;26.00;28.70;;;;;;5063347;28;20425;-65
2021/04/30 11:08:40;;;;;;;8.90;8.00;;;26.10;29.00;;;;;;5058527;28;20140;-65
2021/04/30 11:11:08;;;;;;;9.15;8.07;;;26.50;28.40;;;;;;5070397;28;20032;-65
2021/04/30 11:13:33;;;;;;;11.43;8.32;;;26.50;26.80;;;;;;5066900;28;20579;-65
2021/04/30 11:16:01;;;;;;;9.02;8.13;;;26.30;26.60;;;;;;5065227;28;20127;-65
2021/04/30 11:18:30;;;;;;;11.38;8.50;;;25.90;26.30;;;;;;5068344;28;20043;-64
2021/04/30 11:21:03;;;;;;;12.02;8.82;;;25.70;26.80;;;;;;5067154;28;20039;-65
2021/04/30 11:23:53;;;;;;;13.18;9.45;;;25.40;26.70;;;;;;5046117;28;20106;-65
2021/04/30 11:26:19;;;;;;;10.93;9.23;;;25.10;27.70;;;;;;5069031;28;20544;-65
2021/04/30 11:28:45;;;;;;;10.75;9.20;;;24.80;28.00;;;;;;5057522;28;20051;-65
2021/04/30 11:31:30;;;;;;;12.27;9.27;;;24.60;28.20;;;;;;5067873;28;20036;-65
2021/04/30 11:34:15;;;;;;;12.63;9.38;;;24.40;28.20;;;;;;5067058;28;20639;-65
2021/04/30 11:36:51;;;;;;;11.38;9.77;;;24.10;28.30;;;;;;5070366;28;20465;-65
2021/04/30 11:39:32;;;;;;;13.07;9.45;;;23.90;29.40;;;;;;5069715;28;20123;-65
2021/04/30 11:42:05;;;;;;;12.98;10.88;;;23.70;29.30;;;;;;5064895;28;20120;-65
2021/04/30 11:44:34;;;;;;;13.48;9.35;;;23.50;29.30;;;;;;5060147;28;20039;-64
2021/04/30 11:47:04;;;;;;;10.68;9.57;;;23.30;29.10;;;;;;5049937;28;20032;-65
2021/04/30 11:49:34;;;;;;;11.60;10.07;;;23.00;29.30;;;;;;5067696;28;20115;-65
2021/04/30 11:52:01;;;;;;;12.13;10.15;;;;;;;;;;5069524;28;20351;-65
2021/04/30 11:54:33;;;;;;;10.90;9.80;;;22.80;29.70;;;;;;5057125;28;20106;-65
2021/04/30 11:57:06;;;;;;;12.63;10.10;;;22.20;30.90;;;;;;5069228;28;20119;-65
2021/04/30 11:59:32;;;;;;;12.73;10.20;;;22.10;30.80;;;;;;5050743;28;20063;-65
2021/04/30 12:02:06;;;;;;;13.07;10.32;;;21.90;31.00;;;;;;5065804;28;20123;-65
2021/04/30 12:04:36;;;;;;;14.52;11.10;;;21.80;31.50;;;;;;5068451;28;20037;-65
2021/04/30 12:07:02;;;;;;;12.85;11.25;;;21.60;32.40;;;;;;5066538;28;20578;-64
2021/04/30 12:09:31;;;;;;;17.05;10.63;;;21.40;31.90;;;;;;5063810;28;20039;-64
2021/04/30 12:12:30;;;;;;;14.50;10.88;;;21.30;33.00;;;;;;5050791;28;20084;-65
2021/04/30 12:15:00;;;;;;;12.18;10.30;;;21.30;33.00;;;;;;5033532;28;20740;-65
2021/04/30 12:17:28;;;;;;;12.38;10.25;;;21.30;32.80;;;;;;5067871;28;20514;-65
2021/04/30 12:19:54;;;;;;;12.63;10.23;;;21.20;33.30;;;;;;5072281;28;20036;-65
2021/04/30 12:22:20;;;;;;;12.30;10.35;;;21.30;33.30;;;;;;5072131;28;20040;-65
2021/04/30 12:24:45;;;;;;;13.48;10.65;;;21.30;33.60;;;;;;5053795;28;20032;-65
2021/04/30 12:27:32;;;;;;;11.68;10.48;;;21.30;33.80;;;;;;5068868;28;20252;-65
2021/04/30 12:30:00;;;;;;;10.55;9.48;;;21.40;33.50;;;;;;5064581;28;20102;-65
2021/04/30 12:32:28;;;;;;;11.98;10.25;;;21.40;34.20;;;;;;5068537;28;20038;-65
2021/04/30 12:34:57;;;;;;;11.38;10.25;;;21.60;33.60;;;;;;5067114;28;20032;-65
2021/04/30 12:37:26;;;;;;;12.48;10.40;;;21.80;33.10;;;;;;5066930;28;20143;-65
2021/04/30 12:39:54;;;;;;;11.48;9.10;;;21.90;33.60;;;;;;5044858;28;20086;-65
2021/04/30 12:42:20;;;;;;;9.57;8.57;;;22.10;33.50;;;;;;5030242;28;20405;-64
2021/04/30 12:44:59;;;;;;;10.85;9.57;;;22.30;32.80;;;;;;5047271;28;20044;-65
2021/04/30 12:47:26;;;;;;;9.43;8.43;;;22.30;32.30;;;;;;5047228;28;20248;-65